Ambler, Alaska
Current Conditions -  °F | °C
As of 11:36 PM on Wednesday 22 Oct 2014 (Local Time) from PAFM Reporting Station
Overcast Overcast  
Wind Chill: 19°   Ceiling: 9500
Heat Index: 19°   Visibility: 10mi
Dew Point: 12°   Wind: 0mph
Humidity: 74%   Direction: NA
Pressure: 29.85"   Gusts: NA
Location:  67.09°N, 157.85°W
Report Text: PAFM 230736Z AUTO 00000KT 10SM OVC095 M07/M11 A2985 RMK AO1
Loading
Personal Weather Stations






























Interactive Weather Map
Tropical Storm Tracking
New forecast layout! Learn more

10-Day Weather Forecast

Advertisements
Track Severe Weather on mobile